»·PEaware :: N652MA KUDD-KSAN

N652MA :: KUDD-KSAN

FLIGHT INFORMATION

Flight Status: Arrived
Operator: Privately registered:
United States
More flights under this callsign
Pilot: Anonymous 13363 (13363)
Aircraft: CESSNA 172 SKYHAWK
(C172)
More flights by this aircraft type
Origin: KUDD Bermuda Dunes
United States
Destination: KSAN San Diego Intl-Lindbergh
United States
More flights between these airports :: More routes between these airports
Route: +TRM V514 MZB
File this flight plan on PilotEdge
Remarks: Twitch.tv / ajonesieee
Altitude:
(Current/Filed)
6,000ft
Speed:
(Current/Filed)
105kts
Departed: 27-Sep-17 07:24 PM
Arrived: 27-Sep-17 08:25 PM
Distance/Time
Traveled:
76nm/1:01
Distance/Time
To Go:
Arrived

Flight Plot

Page will automatically refresh every two minutes.


Map Options




Map Legend


Flown Route
Filed Route
Departure Airport
Arrival Airport
Navaid (VOR, NDB)
Fix

Horizontal Profiles

Position Reports

Time Latitude Longitude Heading Altitude Ground
Speed
27-Sep-17 19:20 33.746485 -116.272796 99 77ft 0kts
27-Sep-17 19:21 33.746485 -116.272796 99 77ft 0kts
27-Sep-17 19:22 33.746485 -116.272796 99 77ft 0kts
27-Sep-17 19:23 33.746483 -116.272776 97 77ft 1kts
27-Sep-17 19:24 33.746172 -116.270610 108 77ft 8kts
27-Sep-17 19:25 33.745521 -116.268914 316 77ft 0kts
27-Sep-17 19:26 33.745521 -116.268914 317 77ft 0kts
27-Sep-17 19:27 33.746045 -116.269050 293 77ft 6kts
27-Sep-17 19:28 33.751167 -116.286841 217 784ft 63kts
27-Sep-17 19:29 33.734988 -116.282384 142 1667ft 76kts
27-Sep-17 19:30 33.718199 -116.267080 142 2581ft 77kts
27-Sep-17 19:31 33.704040 -116.254170 142 3259ft 76kts
27-Sep-17 19:32 33.686862 -116.235973 134 4109ft 76kts
27-Sep-17 19:33 33.673516 -116.216029 131 4834ft 77kts
27-Sep-17 19:34 33.657357 -116.199011 137 5556ft 78kts
27-Sep-17 19:35 33.642739 -116.179663 134 6250ft 79kts
27-Sep-17 19:36 33.628908 -116.165140 133 6800ft 79kts
27-Sep-17 19:37 33.611561 -116.164396 238 7395ft 86kts
27-Sep-17 19:38 33.600136 -116.190066 244 7987ft 87kts
27-Sep-17 19:39 33.584018 -116.218308 212 8559ft 92kts
27-Sep-17 19:40 33.566233 -116.232501 204 8960ft 95kts
27-Sep-17 19:41 33.546493 -116.248171 236 9439ft 95kts
27-Sep-17 19:42 33.531655 -116.275104 228 9845ft 99kts
27-Sep-17 19:43 33.512318 -116.298756 221 10074ft 100kts
27-Sep-17 19:44 33.490561 -116.318020 211 9909ft 97kts
27-Sep-17 19:45 33.469199 -116.334725 209 9994ft 95kts
27-Sep-17 19:46 33.446343 -116.351624 208 9975ft 96kts
27-Sep-17 19:47 33.423606 -116.367739 207 9975ft 94kts
27-Sep-17 19:48 33.400860 -116.383128 201 9973ft 95kts
27-Sep-17 19:49 33.376755 -116.398395 201 9979ft 101kts
27-Sep-17 19:50 33.351179 -116.413513 200 9979ft 103kts
27-Sep-17 19:51 33.325127 -116.428111 200 9978ft 103kts
27-Sep-17 19:52 33.299058 -116.442008 200 9979ft 100kts
27-Sep-17 19:53 33.273972 -116.454788 200 9975ft 96kts
27-Sep-17 19:54 33.249625 -116.466591 199 9975ft 93kts
27-Sep-17 19:55 33.225320 -116.477691 197 9976ft 93kts
27-Sep-17 19:56 33.200904 -116.488136 196 9976ft 93kts
27-Sep-17 19:57 33.177393 -116.497513 195 10102ft 87kts
27-Sep-17 19:58 33.152795 -116.506170 195 10116ft 96kts
27-Sep-17 19:59 33.126363 -116.514550 196 10113ft 98kts
27-Sep-17 20:00 33.099777 -116.522283 195 10111ft 98kts
27-Sep-17 20:01 33.092834 -116.542322 336 10109ft 91kts
27-Sep-17 20:02 33.110238 -116.559880 260 10110ft 93kts
27-Sep-17 20:03 33.089463 -116.557753 134 10113ft 99kts
27-Sep-17 20:04 33.067058 -116.547414 209 10112ft 96kts
27-Sep-17 20:05 33.043265 -116.562637 210 10113ft 97kts
27-Sep-17 20:06 33.019344 -116.577975 210 10111ft 97kts
27-Sep-17 20:07 32.994969 -116.593585 210 10124ft 101kts
27-Sep-17 20:08 32.970322 -116.609642 210 10121ft 103kts
27-Sep-17 20:09 32.948014 -116.623986 210 10109ft 99kts
27-Sep-17 20:10 32.923965 -116.639427 210 10110ft 98kts
27-Sep-17 20:11 32.901001 -116.654363 210 10122ft 96kts
27-Sep-17 20:12 32.877511 -116.670849 210 9562ft 112kts
27-Sep-17 20:13 32.850025 -116.691001 230 8886ft 119kts
27-Sep-17 20:14 32.829909 -116.722378 232 8141ft 122kts
27-Sep-17 20:15 32.809144 -116.754810 232 7214ft 127kts
27-Sep-17 20:16 32.788059 -116.787775 232 6254ft 129kts
27-Sep-17 20:17 32.766591 -116.821365 232 5377ft 123kts
27-Sep-17 20:18 32.746184 -116.853341 232 4944ft 121kts
27-Sep-17 20:19 32.725794 -116.885326 232 4502ft 121kts
27-Sep-17 20:20 32.705423 -116.917300 232 4134ft 117kts
27-Sep-17 20:21 32.687278 -116.945804 232 4121ft 102kts
27-Sep-17 20:22 32.675442 -116.974317 288 4103ft 100kts
27-Sep-17 20:23 32.686785 -117.004749 293 4199ft 99kts
27-Sep-17 20:24 32.696439 -117.036523 288 4107ft 111kts
27-Sep-17 20:25 32.705472 -117.071984 282 3190ft 118kts
27-Sep-17 20:26 32.714643 -117.109304 285 1922ft 118kts
27-Sep-17 20:27 32.722553 -117.143643 286 938ft 100kts
27-Sep-17 20:28 32.728757 -117.169875 288 284ft 69kts
27-Sep-17 20:29 32.732799 -117.186723 287 17ft 24kts
27-Sep-17 20:30 32.733960 -117.188083 21 17ft 0kts
27-Sep-17 20:31 32.734059 -117.186992 104 17ft 11kts
27-Sep-17 20:32 32.732818 -117.181876 104 17ft 17kts
27-Sep-17 20:33 32.732567 -117.177369 100 26ft 6kts
27-Sep-17 20:34 32.732499 -117.177262 155 27ft 0kts
27-Sep-17 20:35 32.732499 -117.177262 155 27ft 0kts

Navigation Log

Ident Type
1. KUDD Airport
2. TRM Navaid
3. WARNE Fix
4. JLI Navaid
5. CANNO Fix
6. BARET Fix
7. RYAHH Fix
8. HAILE Fix
9. MZB Navaid
10. KSAN Airport